Urban Journey — WDJ4540 — position and weather

sailwx.info

Track history (hours):
 
Tides and Currents Weather Stations Pressure Air Temp Water Temp Dewpoint Dewpoint Depression Visibility Wind Speed Wind Dir Waves Ship Positions

Urban Journey

Owner: HNY Ferry Fleet, New York, NY. More information available from US FCC via Universal Licensing System and Coast Guard Vessel Documentation Center.

Last reported at 2018-Jul-21 02:36 UTC. Time now 2018-Jul-21 09:41 UTC.
Position N 40°42' W 073°58'.

Length 26 m; draft 1.9 m.

Type: Passenger vessel. MMSI: 367778670.

Date/timePositionNaut miles runAvg speedWind from/ knotsBaromVisibWave heightAir tempDewpointWater temp
2018-Jul-21 02:36N 40°42' W 073°58'0 0.7
2018-Jul-21 02:30N 40°42' W 073°58'1 2.4
2018-Jul-21 02:00N 40°43' W 073°58'2 4.2
2018-Jul-21 01:30N 40°42' W 074°00'1 1.6
2018-Jul-21 01:01N 40°42' W 073°59'2 4.9
2018-Jul-21 00:30N 40°45' W 073°58'1 2.9
2018-Jul-21 00:01N 40°43' W 073°58'2 4.1
2018-Jul-20 23:30N 40°42' W 074°00'2 4.4
2018-Jul-20 23:00N 40°43' W 073°58'1 2.0
2018-Jul-20 22:30N 40°44' W 073°58'2 4.9
2018-Jul-20 22:00N 40°42' W 073°59'0 0.4
2018-Jul-20 21:31N 40°42' W 073°59'2 4.8
2018-Jul-20 21:00N 40°45' W 073°58'2 4.3
2018-Jul-20 20:31N 40°43' W 073°58'2 3.3
2018-Jul-20 20:01N 40°42' W 074°00'2 4.4
2018-Jul-20 19:31N 40°43' W 073°58'0 0.2
2018-Jul-20 19:00N 40°43' W 073°58'2 4.2
2018-Jul-20 18:31N 40°42' W 074°00'0 0.1
2018-Jul-20 18:01N 40°42' W 074°00'2 4.4
2018-Jul-20 17:30N 40°43' W 073°58'1 1.7
2018-Jul-20 17:01N 40°44' W 073°58'2 4.9
2018-Jul-20 16:30N 40°42' W 073°60'0 1.0
2018-Jul-20 16:00N 40°42' W 074°00'2 4.3
2018-Jul-20 15:30N 40°43' W 073°58'1 2.5
2018-Jul-20 15:01N 40°45' W 073°58'3 5.4
2018-Jul-20 14:30N 40°42' W 073°60'0 0.2
2018-Jul-20 14:00N 40°42' W 073°60'2 4.4
2018-Jul-20 13:30N 40°44' W 073°58'1 1.3
2018-Jul-20 13:00N 40°43' W 073°58'2 4.3
2018-Jul-20 12:30N 40°42' W 074°00'2 4.2
2018-Jul-20 12:00N 40°43' W 073°58'1 2.6
2018-Jul-20 11:31N 40°45' W 073°58'3 5.4
2018-Jul-20 11:01N 40°42' W 073°60'1 2.3
2018-Jul-20 10:31N 40°42' W 073°58'0 0.0
2018-Jul-20 10:01N 40°42' W 073°58'0 0.0
2018-Jul-20 04:47N 40°42' W 073°58'0 0.0
2018-Jul-20 01:48N 40°42' W 073°58'2 5.4
2018-Jul-20 01:30N 40°42' W 074°00'611.6
2018-Jul-20 01:00N 40°37' W 074°02'1016.9
2018-Jul-20 00:26N 40°35' W 073°50'4 9.7
2018-Jul-20 00:00N 40°34' W 073°55'713.7
2018-Jul-19 23:30N 40°39' W 074°02'4 7.2
2018-Jul-19 23:00N 40°42' W 074°00'1 3.0
2018-Jul-19 22:31N 40°42' W 073°58'1 2.2
2018-Jul-19 22:00N 40°42' W 073°60'4 8.4
2018-Jul-19 21:31N 40°39' W 074°02'816.0
2018-Jul-19 21:00N 40°34' W 073°53'2 3.8
2018-Jul-19 20:29N 40°34' W 073°56'714.0
2018-Jul-19 20:01N 40°39' W 074°02'2 4.0
2018-Jul-19 19:30N 40°41' W 074°01'813.4
2018-Jul-19 18:54N 40°34' W 073°55'2 5.7
2018-Jul-19 18:29N 40°35' W 073°52'816.9
2018-Jul-19 18:00N 40°37' W 074°02'611.8
2018-Jul-19 17:31N 40°42' W 074°00'714.5
2018-Jul-19 17:00N 40°35' W 074°01'813.7
2018-Jul-19 16:25N 40°35' W 073°51'819.5
2018-Jul-19 16:00N 40°35' W 074°01'714.1
2018-Jul-19 15:31N 40°42' W 074°01'4 8.3
2018-Jul-19 15:00N 40°38' W 074°03'5 5.0
2018-Jul-19 14:00N 40°34' W 073°58'713.5
2018-Jul-19 13:30N 40°40' W 074°01'1 2.9
2018-Jul-19 13:01N 40°39' W 074°02'714.0
2018-Jul-19 12:29N 40°34' W 073°54'1 1.5
2018-Jul-19 12:00N 40°34' W 073°55'714.3
2018-Jul-19 11:31N 40°39' W 074°02'0 0.2
2018-Jul-19 11:01N 40°39' W 074°02'712.9
2018-Jul-19 10:30N 40°34' W 073°56'2 3.6
2018-Jul-19 10:00N 40°34' W 073°53'816.3
2018-Jul-19 09:30N 40°39' W 074°02'4 8.6
2018-Jul-19 09:01N 40°42' W 073°58'0 0.0
2018-Jul-19 02:38N 40°42' W 073°58'1 9.4
2018-Jul-19 02:30N 40°42' W 073°60'3 6.7
2018-Jul-19 02:00N 40°45' W 073°57'0 0.7
2018-Jul-19 01:30N 40°45' W 073°57'4 8.0
2018-Jul-19 01:00N 40°42' W 074°00'4 7.3
2018-Jul-19 00:30N 40°45' W 073°57'0 0.5
2018-Jul-19 00:01N 40°45' W 073°57'4 7.8
2018-Jul-18 23:30N 40°42' W 074°00'3 5.7
2018-Jul-18 23:00N 40°45' W 073°58'2 4.2
2018-Jul-18 22:27N 40°46' W 073°56'4 8.3
2018-Jul-18 22:00N 40°43' W 073°58'2 3.4
2018-Jul-18 21:31N 40°45' W 073°58'2 4.5
2018-Jul-18 21:00N 40°46' W 073°56'3 6.8
2018-Jul-18 20:30N 40°43' W 073°58'1 2.8
2018-Jul-18 20:00N 40°45' W 073°58'2 4.5
2018-Jul-18 19:30N 40°46' W 073°56'3 6.5
2018-Jul-18 19:00N 40°43' W 073°58'1 2.5
2018-Jul-18 18:30N 40°45' W 073°58'2 4.5
2018-Jul-18 18:00N 40°46' W 073°56'3 5.8
2018-Jul-18 17:30N 40°44' W 073°58'1 1.7
2018-Jul-18 17:00N 40°45' W 073°58'2 4.6
2018-Jul-18 16:30N 40°46' W 073°56'3 5.9
2018-Jul-18 16:00N 40°44' W 073°58'1 1.8
2018-Jul-18 15:30N 40°45' W 073°58'2 4.6
2018-Jul-18 15:00N 40°46' W 073°56'3 6.2
2018-Jul-18 14:30N 40°44' W 073°58'3 3.0
2018-Jul-18 13:28N 40°46' W 073°56'2 4.8
2018-Jul-18 13:01N 40°45' W 073°58'1 1.5
2018-Jul-18 12:31N 40°44' W 073°58'3 5.3
2018-Jul-18 11:59N 40°46' W 073°56'3 5.4
2018-Jul-18 11:30N 40°44' W 073°58'3 2.6
2018-Jul-18 10:30N 40°46' W 073°56'4 9.0
2018-Jul-18 10:01N 40°42' W 073°58'0 0.0
2018-Jul-18 02:59N 40°42' W 073°58'1 2.0
2018-Jul-18 02:31N 40°42' W 073°60'4 7.1
2018-Jul-18 02:00N 40°45' W 073°57'0 0.0
2018-Jul-18 01:30N 40°45' W 073°57'4 8.0
2018-Jul-18 01:00N 40°42' W 074°00'4 7.5
2018-Jul-18 00:30N 40°45' W 073°57'0 0.4
2018-Jul-18 00:00N 40°45' W 073°57'4 7.1
2018-Jul-17 23:30N 40°42' W 074°00'3 5.8
2018-Jul-17 23:00N 40°45' W 073°58'2 4.3
2018-Jul-17 22:28N 40°46' W 073°56'3 7.1
2018-Jul-17 22:01N 40°43' W 073°58'1 2.6
2018-Jul-17 21:30N 40°45' W 073°58'2 4.4
2018-Jul-17 20:59N 40°46' W 073°56'4 7.7
2018-Jul-17 20:31N 40°43' W 073°58'2 3.4
2018-Jul-17 20:01N 40°45' W 073°58'2 4.5
2018-Jul-17 19:30N 40°46' W 073°56'4 7.2
2018-Jul-17 19:01N 40°43' W 073°58'2 3.2
2018-Jul-17 18:30N 40°45' W 073°58'2 4.5
2018-Jul-17 18:00N 40°46' W 073°56'3 5.5
2018-Jul-17 17:31N 40°44' W 073°58'1 1.2
2018-Jul-17 17:00N 40°45' W 073°58'2 4.6
2018-Jul-17 16:31N 40°46' W 073°56'3 5.7
2018-Jul-17 16:00N 40°44' W 073°58'2 2.4
2018-Jul-17 15:17N 40°45' W 073°57'1 2.0
2018-Jul-17 14:56N 40°46' W 073°57'3 6.2
2018-Jul-17 14:30N 40°44' W 073°58'0 0.5
2018-Jul-17 14:00N 40°44' W 073°58'3 5.3
2018-Jul-17 13:29N 40°46' W 073°56'2 5.1
2018-Jul-17 13:01N 40°45' W 073°58'0 0.4
2018-Jul-17 12:31N 40°44' W 073°58'2 4.9
2018-Jul-17 12:00N 40°46' W 073°56'2 4.8
2018-Jul-17 11:31N 40°45' W 073°58'1 2.9
2018-Jul-17 11:00N 40°43' W 073°58'4 7.1
2018-Jul-17 10:30N 40°46' W 073°56'5 9.1
2018-Jul-17 10:00N 40°42' W 073°58'0 0.0
2018-Jul-17 03:03N 40°42' W 073°58'0 0.0
2018-Jul-17 03:00N 40°42' W 073°58'5 9.2
2018-Jul-17 02:29N 40°38' W 074°02'3 6.9
2018-Jul-17 02:01N 40°41' W 074°00'0 0.5
2018-Jul-17 01:31N 40°42' W 074°00'4 7.1
2018-Jul-17 01:00N 40°38' W 074°02'4 7.3
2018-Jul-17 00:31N 40°42' W 074°00'3 3.2
2018-Jul-16 23:31N 40°39' W 074°02'4 7.6
2018-Jul-16 23:01N 40°42' W 073°60'1 1.5
2018-Jul-16 22:31N 40°42' W 074°00'3 5.9
2018-Jul-16 22:00N 40°39' W 074°02'4 7.4
2018-Jul-16 21:30N 40°42' W 073°60'1 2.6
2018-Jul-16 21:00N 40°41' W 074°01'2 5.0
2018-Jul-16 20:31N 40°39' W 074°02'4 7.4
2018-Jul-16 20:01N 40°42' W 073°60'1 1.4
2018-Jul-16 19:30N 40°42' W 074°00'4 7.1
2018-Jul-16 19:00N 40°38' W 074°02'4 7.1
2018-Jul-16 18:30N 40°42' W 074°00'1 1.2
2018-Jul-16 18:00N 40°42' W 073°60'4 7.1
2018-Jul-16 17:31N 40°39' W 074°02'3 5.4
2018-Jul-16 17:01N 40°41' W 074°01'1 1.2
2018-Jul-16 16:30N 40°42' W 074°00'4 7.8
2018-Jul-16 16:01N 40°38' W 074°02'4 7.0
2018-Jul-16 15:31N 40°42' W 074°00'1 1.3
2018-Jul-16 15:00N 40°42' W 074°00'0 0.7
2018-Jul-16 14:31N 40°42' W 073°60'4 8.0
2018-Jul-16 14:01N 40°39' W 074°02'3 6.7
2018-Jul-16 13:30N 40°42' W 074°00'1 1.2
2018-Jul-16 13:01N 40°42' W 073°60'4 7.1
2018-Jul-16 12:30N 40°39' W 074°02'3 5.5
2018-Jul-16 12:00N 40°41' W 074°01'0 0.6
2018-Jul-16 11:30N 40°42' W 074°00'3 7.0
2018-Jul-16 11:01N 40°39' W 074°02'5 9.6
2018-Jul-16 10:31N 40°42' W 073°58'0 0.4
2018-Jul-16 10:01N 40°42' W 073°58'0 0.0
2018-Jul-15 21:47N 40°42' W 073°58'2 8.3
2018-Jul-15 21:31N 40°41' W 074°01'3 6.4
2018-Jul-15 21:00N 40°38' W 074°03'4 7.2
2018-Jul-15 20:31N 40°42' W 074°02'2 3.8
2018-Jul-15 19:51N 40°42' W 073°59'0 0.7
2018-Jul-15 19:26N 40°42' W 073°58'0 0.0
2018-Jul-15 01:44N 40°42' W 073°58'0 0.0
2018-Jul-15 01:30N 40°42' W 073°58'0 0.0
2018-Jul-15 01:00N 40°42' W 073°58'0 0.0
2018-Jul-15 00:30N 40°42' W 073°58'0 0.0
2018-Jul-15 00:00N 40°42' W 073°58'0 0.0
2018-Jul-14 23:30N 40°42' W 073°58'0 0.0
2018-Jul-14 23:00N 40°42' W 073°58'0 0.0
2018-Jul-14 22:29N 40°42' W 073°58'0 0.0
2018-Jul-14 22:00N 40°42' W 073°58'0 0.0
2018-Jul-14 21:30N 40°42' W 073°58'0 0.0
2018-Jul-14 21:00N 40°42' W 073°58'0 0.0
2018-Jul-14 20:30N 40°42' W 073°58'0 0.0
2018-Jul-14 20:00N 40°42' W 073°58'0 0.0
2018-Jul-14 19:30N 40°42' W 073°58'2 3.1
2018-Jul-14 19:01N 40°42' W 074°00'1 3.0
2018-Jul-14 18:30N 40°42' W 073°58'0 0.1
2018-Jul-14 18:00N 40°42' W 073°58'2 3.0
2018-Jul-14 17:30N 40°42' W 074°00'612.9
2018-Jul-14 17:00N 40°36' W 074°02'917.3
2018-Jul-14 16:29N 40°35' W 073°50'4 7.9
2018-Jul-14 16:01N 40°34' W 073°55'713.9
2018-Jul-14 15:30N 40°39' W 074°02'4 7.6
2018-Jul-14 15:00N 40°42' W 073°60'1 0.1
2018-Jul-14 01:51N 40°42' W 073°58'1 3.3
2018-Jul-14 01:30N 40°42' W 073°60'3 5.5
2018-Jul-14 01:00N 40°44' W 073°58'1 2.4
2018-Jul-14 00:30N 40°43' W 073°58'2 4.1
2018-Jul-13 23:59N 40°42' W 074°00'2 3.5
2018-Jul-13 23:31N 40°43' W 073°58'2 4.3
2018-Jul-13 23:00N 40°45' W 073°58'2 4.2
2018-Jul-13 22:31N 40°43' W 073°58'1 2.3
2018-Jul-13 22:01N 40°42' W 073°60'2 4.4
2018-Jul-13 21:30N 40°44' W 073°58'0 0.4
2018-Jul-13 21:01N 40°44' W 073°58'2 4.8
2018-Jul-13 20:30N 40°42' W 074°00'2 3.4
2018-Jul-13 20:01N 40°43' W 073°58'2 3.5
2018-Jul-13 19:30N 40°45' W 073°58'3 5.5
2018-Jul-13 19:00N 40°42' W 073°60'0 0.9
2018-Jul-13 18:30N 40°42' W 074°00'2 4.4
2018-Jul-13 18:01N 40°43' W 073°58'1 1.5
2018-Jul-13 17:30N 40°44' W 073°58'2 4.8
2018-Jul-13 17:00N 40°42' W 073°60'0 0.9
2018-Jul-13 16:31N 40°42' W 074°00'2 4.3
2018-Jul-13 16:00N 40°43' W 073°58'1 2.3
2018-Jul-13 15:31N 40°45' W 073°58'3 5.5
2018-Jul-13 15:00N 40°42' W 073°60'0 0.6
2018-Jul-13 14:31N 40°42' W 073°59'3 2.5
2018-Jul-13 13:30N 40°45' W 073°58'3 5.3
2018-Jul-13 13:00N 40°42' W 073°60'1 1.7
2018-Jul-13 12:30N 40°42' W 073°59'2 4.4
2018-Jul-13 12:01N 40°45' W 073°58'2 4.3
2018-Jul-13 11:31N 40°43' W 073°58'0 0.9
2018-Jul-13 11:00N 40°42' W 073°58'0 0.2
2018-Jul-13 10:30N 40°42' W 073°58'0 0.0
2018-Jul-13 10:00N 40°42' W 073°58'0 0.0
2018-Jul-13 01:47N 40°42' W 073°58'0 0.9
2018-Jul-13 01:31N 40°42' W 073°58'5 9.0
2018-Jul-13 01:00N 40°39' W 074°02'816.2
2018-Jul-13 00:30N 40°34' W 073°53'2 4.6
2018-Jul-13 00:00N 40°34' W 073°56'713.4
2018-Jul-12 23:31N 40°39' W 074°02'4 7.3
2018-Jul-12 23:00N 40°42' W 074°00'0 0.4
2018-Jul-12 22:31N 40°42' W 073°60'2 3.4
2018-Jul-12 22:00N 40°43' W 073°58'1 2.5
2018-Jul-12 21:31N 40°45' W 073°58'3 5.5
2018-Jul-12 21:01N 40°42' W 073°60'3 5.5
2018-Jul-12 20:31N 40°45' W 073°58'3 5.5
2018-Jul-12 20:00N 40°42' W 073°60'0 0.9
2018-Jul-12 19:30N 40°42' W 074°00'2 4.2
2018-Jul-12 19:00N 40°43' W 073°58'1 2.5
2018-Jul-12 18:30N 40°45' W 073°58'3 5.5
2018-Jul-12 18:00N 40°42' W 073°60'0 0.2
2018-Jul-12 17:31N 40°42' W 073°60'2 3.7
2018-Jul-12 17:00N 40°43' W 073°58'1 2.5
2018-Jul-12 16:31N 40°45' W 073°58'3 5.5
2018-Jul-12 16:01N 40°42' W 073°60'0 1.0
2018-Jul-12 15:30N 40°42' W 074°00'2 4.3
2018-Jul-12 15:01N 40°43' W 073°58'1 2.5
2018-Jul-12 14:30N 40°45' W 073°58'3 5.4
2018-Jul-12 14:00N 40°42' W 073°60'1 2.4
2018-Jul-12 13:30N 40°43' W 073°58'2 4.2
2018-Jul-12 13:00N 40°45' W 073°58'2 4.2
2018-Jul-12 12:30N 40°43' W 073°58'1 2.5
2018-Jul-12 12:01N 40°42' W 073°60'2 4.6
2018-Jul-12 11:31N 40°44' W 073°58'0 0.6
2018-Jul-12 11:00N 40°44' W 073°58'2 4.6
2018-Jul-12 10:30N 40°42' W 074°00'2 3.1
2018-Jul-12 10:00N 40°42' W 073°58'0 0.0
2018-Jul-12 09:30N 40°42' W 073°58'0 0.0
2018-Jul-12 02:49N 40°42' W 073°58'1 4.5
2018-Jul-12 02:30N 40°42' W 074°00'2 4.9
2018-Jul-12 02:01N 40°44' W 073°58'1 1.3
2018-Jul-12 01:30N 40°43' W 073°58'2 4.2
2018-Jul-12 01:00N 40°42' W 074°00'0 0.7
2018-Jul-12 00:30N 40°42' W 073°60'2 4.7
2018-Jul-12 00:00N 40°44' W 073°58'0 0.9
2018-Jul-11 23:30N 40°44' W 073°58'2 4.6
2018-Jul-11 23:00N 40°42' W 074°00'1 2.0
2018-Jul-11 22:31N 40°42' W 073°59'2 4.8
2018-Jul-11 22:01N 40°45' W 073°58'2 4.3
2018-Jul-11 21:31N 40°43' W 073°58'2 3.3
2018-Jul-11 21:00N 40°42' W 074°00'2 4.2
2018-Jul-11 20:30N 40°43' W 073°58'1 2.5
2018-Jul-11 20:00N 40°44' W 073°58'3 5.5
2018-Jul-11 19:30N 40°42' W 073°60'0 0.9
2018-Jul-11 19:01N 40°42' W 074°00'2 4.2
2018-Jul-11 18:30N 40°43' W 073°58'1 2.4
2018-Jul-11 18:01N 40°44' W 073°58'3 5.3
2018-Jul-11 17:30N 40°42' W 073°60'0 0.9
2018-Jul-11 17:00N 40°42' W 074°00'2 4.3
2018-Jul-11 16:30N 40°43' W 073°58'1 2.5
2018-Jul-11 16:01N 40°45' W 073°58'3 5.6
2018-Jul-11 15:31N 40°42' W 073°60'0 0.9
2018-Jul-11 15:00N 40°42' W 074°00'2 4.3
2018-Jul-11 14:30N 40°43' W 073°58'1 2.5
2018-Jul-11 14:01N 40°45' W 073°58'3 5.5
2018-Jul-11 13:31N 40°42' W 073°60'0 0.1
2018-Jul-11 13:00N 40°42' W 073°60'3 5.4
2018-Jul-11 12:30N 40°45' W 073°58'1 2.5
2018-Jul-11 12:00N 40°43' W 073°58'2 4.1
2018-Jul-11 11:30N 40°42' W 074°00'1 2.7
2018-Jul-11 11:01N 40°43' W 073°59'2 4.3
2018-Jul-11 10:30N 40°45' W 073°58'3 0.3
2018-Jul-11 02:58N 40°42' W 073°58'  
Track history (hours):
 
Tides and Currents Weather Stations Pressure Air Temp Water Temp Dewpoint Dewpoint Depression Visibility Wind Speed Wind Dir Waves Ship Positions

Urban Journey

Owner: HNY Ferry Fleet, New York, NY. More information available from US FCC via Universal Licensing System and Coast Guard Vessel Documentation Center.

Last reported at 2018-Jul-21 02:36 UTC. Time now 2018-Jul-21 09:41 UTC.
Position N 40°42' W 073°58'.

Length 26 m; draft 1.9 m.

Type: Passenger vessel. MMSI: 367778670.

Date/timePositionNaut miles runAvg speedWind from/ knotsBaromVisibWave heightAir tempDewpointWater temp
2018-Jul-21 02:36N 40°42' W 073°58'0 0.7
2018-Jul-21 02:30N 40°42' W 073°58'1 2.4
2018-Jul-21 02:00N 40°43' W 073°58'2 4.2
2018-Jul-21 01:30N 40°42' W 074°00'1 1.6
2018-Jul-21 01:01N 40°42' W 073°59'2 4.9
2018-Jul-21 00:30N 40°45' W 073°58'1 2.9
2018-Jul-21 00:01N 40°43' W 073°58'2 4.1
2018-Jul-20 23:30N 40°42' W 074°00'2 4.4
2018-Jul-20 23:00N 40°43' W 073°58'1 2.0
2018-Jul-20 22:30N 40°44' W 073°58'2 4.9
2018-Jul-20 22:00N 40°42' W 073°59'0 0.4
2018-Jul-20 21:31N 40°42' W 073°59'2 4.8
2018-Jul-20 21:00N 40°45' W 073°58'2 4.3
2018-Jul-20 20:31N 40°43' W 073°58'2 3.3
2018-Jul-20 20:01N 40°42' W 074°00'2 4.4
2018-Jul-20 19:31N 40°43' W 073°58'0 0.2
2018-Jul-20 19:00N 40°43' W 073°58'2 4.2
2018-Jul-20 18:31N 40°42' W 074°00'0 0.1
2018-Jul-20 18:01N 40°42' W 074°00'2 4.4
2018-Jul-20 17:30N 40°43' W 073°58'1 1.7
2018-Jul-20 17:01N 40°44' W 073°58'2 4.9
2018-Jul-20 16:30N 40°42' W 073°60'0 1.0
2018-Jul-20 16:00N 40°42' W 074°00'2 4.3
2018-Jul-20 15:30N 40°43' W 073°58'1 2.5
2018-Jul-20 15:01N 40°45' W 073°58'3 5.4
2018-Jul-20 14:30N 40°42' W 073°60'0 0.2
2018-Jul-20 14:00N 40°42' W 073°60'2 4.4
2018-Jul-20 13:30N 40°44' W 073°58'1 1.3
2018-Jul-20 13:00N 40°43' W 073°58'2 4.3
2018-Jul-20 12:30N 40°42' W 074°00'2 4.2
2018-Jul-20 12:00N 40°43' W 073°58'1 2.6
2018-Jul-20 11:31N 40°45' W 073°58'3 5.4
2018-Jul-20 11:01N 40°42' W 073°60'1 2.3
2018-Jul-20 10:31N 40°42' W 073°58'0 0.0
2018-Jul-20 10:01N 40°42' W 073°58'0 0.0
2018-Jul-20 04:47N 40°42' W 073°58'0 0.0
2018-Jul-20 01:48N 40°42' W 073°58'2 5.4
2018-Jul-20 01:30N 40°42' W 074°00'611.6
2018-Jul-20 01:00N 40°37' W 074°02'1016.9
2018-Jul-20 00:26N 40°35' W 073°50'4 9.7
2018-Jul-20 00:00N 40°34' W 073°55'713.7
2018-Jul-19 23:30N 40°39' W 074°02'4 7.2
2018-Jul-19 23:00N 40°42' W 074°00'1 3.0
2018-Jul-19 22:31N 40°42' W 073°58'1 2.2
2018-Jul-19 22:00N 40°42' W 073°60'4 8.4
2018-Jul-19 21:31N 40°39' W 074°02'816.0
2018-Jul-19 21:00N 40°34' W 073°53'2 3.8
2018-Jul-19 20:29N 40°34' W 073°56'714.0
2018-Jul-19 20:01N 40°39' W 074°02'2 4.0
2018-Jul-19 19:30N 40°41' W 074°01'813.4
2018-Jul-19 18:54N 40°34' W 073°55'2 5.7
2018-Jul-19 18:29N 40°35' W 073°52'816.9
2018-Jul-19 18:00N 40°37' W 074°02'611.8
2018-Jul-19 17:31N 40°42' W 074°00'714.5
2018-Jul-19 17:00N 40°35' W 074°01'813.7
2018-Jul-19 16:25N 40°35' W 073°51'819.5
2018-Jul-19 16:00N 40°35' W 074°01'714.1
2018-Jul-19 15:31N 40°42' W 074°01'4 8.3
2018-Jul-19 15:00N 40°38' W 074°03'5 5.0
2018-Jul-19 14:00N 40°34' W 073°58'713.5
2018-Jul-19 13:30N 40°40' W 074°01'1 2.9
2018-Jul-19 13:01N 40°39' W 074°02'714.0
2018-Jul-19 12:29N 40°34' W 073°54'1 1.5
2018-Jul-19 12:00N 40°34' W 073°55'714.3
2018-Jul-19 11:31N 40°39' W 074°02'0 0.2
2018-Jul-19 11:01N 40°39' W 074°02'712.9
2018-Jul-19 10:30N 40°34' W 073°56'2 3.6
2018-Jul-19 10:00N 40°34' W 073°53'816.3
2018-Jul-19 09:30N 40°39' W 074°02'4 8.6
2018-Jul-19 09:01N 40°42' W 073°58'0 0.0
2018-Jul-19 02:38N 40°42' W 073°58'1 9.4
2018-Jul-19 02:30N 40°42' W 073°60'3 6.7
2018-Jul-19 02:00N 40°45' W 073°57'0 0.7
2018-Jul-19 01:30N 40°45' W 073°57'4 8.0
2018-Jul-19 01:00N 40°42' W 074°00'4 7.3
2018-Jul-19 00:30N 40°45' W 073°57'0 0.5
2018-Jul-19 00:01N 40°45' W 073°57'4 7.8
2018-Jul-18 23:30N 40°42' W 074°00'3 5.7
2018-Jul-18 23:00N 40°45' W 073°58'2 4.2
2018-Jul-18 22:27N 40°46' W 073°56'4 8.3
2018-Jul-18 22:00N 40°43' W 073°58'2 3.4
2018-Jul-18 21:31N 40°45' W 073°58'2 4.5
2018-Jul-18 21:00N 40°46' W 073°56'3 6.8
2018-Jul-18 20:30N 40°43' W 073°58'1 2.8
2018-Jul-18 20:00N 40°45' W 073°58'2 4.5
2018-Jul-18 19:30N 40°46' W 073°56'3 6.5
2018-Jul-18 19:00N 40°43' W 073°58'1 2.5
2018-Jul-18 18:30N 40°45' W 073°58'2 4.5
2018-Jul-18 18:00N 40°46' W 073°56'3 5.8
2018-Jul-18 17:30N 40°44' W 073°58'1 1.7
2018-Jul-18 17:00N 40°45' W 073°58'2 4.6
2018-Jul-18 16:30N 40°46' W 073°56'3 5.9
2018-Jul-18 16:00N 40°44' W 073°58'1 1.8
2018-Jul-18 15:30N 40°45' W 073°58'2 4.6
2018-Jul-18 15:00N 40°46' W 073°56'3 6.2
2018-Jul-18 14:30N 40°44' W 073°58'3 3.0
2018-Jul-18 13:28N 40°46' W 073°56'2 4.8
2018-Jul-18 13:01N 40°45' W 073°58'1 1.5
2018-Jul-18 12:31N 40°44' W 073°58'3 5.3
2018-Jul-18 11:59N 40°46' W 073°56'3 5.4
2018-Jul-18 11:30N 40°44' W 073°58'3 2.6
2018-Jul-18 10:30N 40°46' W 073°56'4 9.0
2018-Jul-18 10:01N 40°42' W 073°58'0 0.0
2018-Jul-18 02:59N 40°42' W 073°58'1 2.0
2018-Jul-18 02:31N 40°42' W 073°60'4 7.1
2018-Jul-18 02:00N 40°45' W 073°57'0 0.0
2018-Jul-18 01:30N 40°45' W 073°57'4 8.0
2018-Jul-18 01:00N 40°42' W 074°00'4 7.5
2018-Jul-18 00:30N 40°45' W 073°57'0 0.4
2018-Jul-18 00:00N 40°45' W 073°57'4 7.1
2018-Jul-17 23:30N 40°42' W 074°00'3 5.8
2018-Jul-17 23:00N 40°45' W 073°58'2 4.3
2018-Jul-17 22:28N 40°46' W 073°56'3 7.1
2018-Jul-17 22:01N 40°43' W 073°58'1 2.6
2018-Jul-17 21:30N 40°45' W 073°58'2 4.4
2018-Jul-17 20:59N 40°46' W 073°56'4 7.7
2018-Jul-17 20:31N 40°43' W 073°58'2 3.4
2018-Jul-17 20:01N 40°45' W 073°58'2 4.5
2018-Jul-17 19:30N 40°46' W 073°56'4 7.2
2018-Jul-17 19:01N 40°43' W 073°58'2 3.2
2018-Jul-17 18:30N 40°45' W 073°58'2 4.5
2018-Jul-17 18:00N 40°46' W 073°56'3 5.5
2018-Jul-17 17:31N 40°44' W 073°58'1 1.2
2018-Jul-17 17:00N 40°45' W 073°58'2 4.6
2018-Jul-17 16:31N 40°46' W 073°56'3 5.7
2018-Jul-17 16:00N 40°44' W 073°58'2 2.4
2018-Jul-17 15:17N 40°45' W 073°57'1 2.0
2018-Jul-17 14:56N 40°46' W 073°57'3 6.2
2018-Jul-17 14:30N 40°44' W 073°58'0 0.5
2018-Jul-17 14:00N 40°44' W 073°58'3 5.3
2018-Jul-17 13:29N 40°46' W 073°56'2 5.1
2018-Jul-17 13:01N 40°45' W 073°58'0 0.4
2018-Jul-17 12:31N 40°44' W 073°58'2 4.9
2018-Jul-17 12:00N 40°46' W 073°56'2 4.8
2018-Jul-17 11:31N 40°45' W 073°58'1 2.9
2018-Jul-17 11:00N 40°43' W 073°58'4 7.1
2018-Jul-17 10:30N 40°46' W 073°56'5 9.1
2018-Jul-17 10:00N 40°42' W 073°58'0 0.0
2018-Jul-17 03:03N 40°42' W 073°58'0 0.0
2018-Jul-17 03:00N 40°42' W 073°58'5 9.2
2018-Jul-17 02:29N 40°38' W 074°02'3 6.9
2018-Jul-17 02:01N 40°41' W 074°00'0 0.5
2018-Jul-17 01:31N 40°42' W 074°00'4 7.1
2018-Jul-17 01:00N 40°38' W 074°02'4 7.3
2018-Jul-17 00:31N 40°42' W 074°00'3 3.2
2018-Jul-16 23:31N 40°39' W 074°02'4 7.6
2018-Jul-16 23:01N 40°42' W 073°60'1 1.5
2018-Jul-16 22:31N 40°42' W 074°00'3 5.9
2018-Jul-16 22:00N 40°39' W 074°02'4 7.4
2018-Jul-16 21:30N 40°42' W 073°60'1 2.6
2018-Jul-16 21:00N 40°41' W 074°01'2 5.0
2018-Jul-16 20:31N 40°39' W 074°02'4 7.4
2018-Jul-16 20:01N 40°42' W 073°60'1 1.4
2018-Jul-16 19:30N 40°42' W 074°00'4 7.1
2018-Jul-16 19:00N 40°38' W 074°02'4 7.1
2018-Jul-16 18:30N 40°42' W 074°00'1 1.2
2018-Jul-16 18:00N 40°42' W 073°60'4 7.1
2018-Jul-16 17:31N 40°39' W 074°02'3 5.4
2018-Jul-16 17:01N 40°41' W 074°01'1 1.2
2018-Jul-16 16:30N 40°42' W 074°00'4 7.8
2018-Jul-16 16:01N 40°38' W 074°02'4 7.0
2018-Jul-16 15:31N 40°42' W 074°00'1 1.3
2018-Jul-16 15:00N 40°42' W 074°00'0 0.7
2018-Jul-16 14:31N 40°42' W 073°60'4 8.0
2018-Jul-16 14:01N 40°39' W 074°02'3 6.7
2018-Jul-16 13:30N 40°42' W 074°00'1 1.2
2018-Jul-16 13:01N 40°42' W 073°60'4 7.1
2018-Jul-16 12:30N 40°39' W 074°02'3 5.5
2018-Jul-16 12:00N 40°41' W 074°01'0 0.6
2018-Jul-16 11:30N 40°42' W 074°00'3 7.0
2018-Jul-16 11:01N 40°39' W 074°02'5 9.6
2018-Jul-16 10:31N 40°42' W 073°58'0 0.4
2018-Jul-16 10:01N 40°42' W 073°58'0 0.0
2018-Jul-15 21:47N 40°42' W 073°58'2 8.3
2018-Jul-15 21:31N 40°41' W 074°01'3 6.4
2018-Jul-15 21:00N 40°38' W 074°03'4 7.2
2018-Jul-15 20:31N 40°42' W 074°02'2 3.8
2018-Jul-15 19:51N 40°42' W 073°59'0 0.7
2018-Jul-15 19:26N 40°42' W 073°58'0 0.0
2018-Jul-15 01:44N 40°42' W 073°58'0 0.0
2018-Jul-15 01:30N 40°42' W 073°58'0 0.0
2018-Jul-15 01:00N 40°42' W 073°58'0 0.0
2018-Jul-15 00:30N 40°42' W 073°58'0 0.0
2018-Jul-15 00:00N 40°42' W 073°58'0 0.0
2018-Jul-14 23:30N 40°42' W 073°58'0 0.0
2018-Jul-14 23:00N 40°42' W 073°58'0 0.0
2018-Jul-14 22:29N 40°42' W 073°58'0 0.0
2018-Jul-14 22:00N 40°42' W 073°58'0 0.0
2018-Jul-14 21:30N 40°42' W 073°58'0 0.0
2018-Jul-14 21:00N 40°42' W 073°58'0 0.0
2018-Jul-14 20:30N 40°42' W 073°58'0 0.0
2018-Jul-14 20:00N 40°42' W 073°58'0 0.0
2018-Jul-14 19:30N 40°42' W 073°58'2 3.1
2018-Jul-14 19:01N 40°42' W 074°00'1 3.0
2018-Jul-14 18:30N 40°42' W 073°58'0 0.1
2018-Jul-14 18:00N 40°42' W 073°58'2 3.0
2018-Jul-14 17:30N 40°42' W 074°00'612.9
2018-Jul-14 17:00N 40°36' W 074°02'917.3
2018-Jul-14 16:29N 40°35' W 073°50'4 7.9
2018-Jul-14 16:01N 40°34' W 073°55'713.9
2018-Jul-14 15:30N 40°39' W 074°02'4 7.6
2018-Jul-14 15:00N 40°42' W 073°60'1 0.1
2018-Jul-14 01:51N 40°42' W 073°58'1 3.3
2018-Jul-14 01:30N 40°42' W 073°60'3 5.5
2018-Jul-14 01:00N 40°44' W 073°58'1 2.4
2018-Jul-14 00:30N 40°43' W 073°58'2 4.1
2018-Jul-13 23:59N 40°42' W 074°00'2 3.5
2018-Jul-13 23:31N 40°43' W 073°58'2 4.3
2018-Jul-13 23:00N 40°45' W 073°58'2 4.2
2018-Jul-13 22:31N 40°43' W 073°58'1 2.3
2018-Jul-13 22:01N 40°42' W 073°60'2 4.4
2018-Jul-13 21:30N 40°44' W 073°58'0 0.4
2018-Jul-13 21:01N 40°44' W 073°58'2 4.8
2018-Jul-13 20:30N 40°42' W 074°00'2 3.4
2018-Jul-13 20:01N 40°43' W 073°58'2 3.5
2018-Jul-13 19:30N 40°45' W 073°58'3 5.5
2018-Jul-13 19:00N 40°42' W 073°60'0 0.9
2018-Jul-13 18:30N 40°42' W 074°00'2 4.4
2018-Jul-13 18:01N 40°43' W 073°58'1 1.5
2018-Jul-13 17:30N 40°44' W 073°58'2 4.8
2018-Jul-13 17:00N 40°42' W 073°60'0 0.9
2018-Jul-13 16:31N 40°42' W 074°00'2 4.3
2018-Jul-13 16:00N 40°43' W 073°58'1 2.3
2018-Jul-13 15:31N 40°45' W 073°58'3 5.5
2018-Jul-13 15:00N 40°42' W 073°60'0 0.6
2018-Jul-13 14:31N 40°42' W 073°59'3 2.5
2018-Jul-13 13:30N 40°45' W 073°58'3 5.3
2018-Jul-13 13:00N 40°42' W 073°60'1 1.7
2018-Jul-13 12:30N 40°42' W 073°59'2 4.4
2018-Jul-13 12:01N 40°45' W 073°58'2 4.3
2018-Jul-13 11:31N 40°43' W 073°58'0 0.9
2018-Jul-13 11:00N 40°42' W 073°58'0 0.2
2018-Jul-13 10:30N 40°42' W 073°58'0 0.0
2018-Jul-13 10:00N 40°42' W 073°58'0 0.0
2018-Jul-13 01:47N 40°42' W 073°58'0 0.9
2018-Jul-13 01:31N 40°42' W 073°58'5 9.0
2018-Jul-13 01:00N 40°39' W 074°02'816.2
2018-Jul-13 00:30N 40°34' W 073°53'2 4.6
2018-Jul-13 00:00N 40°34' W 073°56'713.4
2018-Jul-12 23:31N 40°39' W 074°02'4 7.3
2018-Jul-12 23:00N 40°42' W 074°00'0 0.4
2018-Jul-12 22:31N 40°42' W 073°60'2 3.4
2018-Jul-12 22:00N 40°43' W 073°58'1 2.5
2018-Jul-12 21:31N 40°45' W 073°58'3 5.5
2018-Jul-12 21:01N 40°42' W 073°60'3 5.5
2018-Jul-12 20:31N 40°45' W 073°58'3 5.5
2018-Jul-12 20:00N 40°42' W 073°60'0 0.9
2018-Jul-12 19:30N 40°42' W 074°00'2 4.2
2018-Jul-12 19:00N 40°43' W 073°58'1 2.5
2018-Jul-12 18:30N 40°45' W 073°58'3 5.5
2018-Jul-12 18:00N 40°42' W 073°60'0 0.2
2018-Jul-12 17:31N 40°42' W 073°60'2 3.7
2018-Jul-12 17:00N 40°43' W 073°58'1 2.5
2018-Jul-12 16:31N 40°45' W 073°58'3 5.5
2018-Jul-12 16:01N 40°42' W 073°60'0 1.0
2018-Jul-12 15:30N 40°42' W 074°00'2 4.3
2018-Jul-12 15:01N 40°43' W 073°58'1 2.5
2018-Jul-12 14:30N 40°45' W 073°58'3 5.4
2018-Jul-12 14:00N 40°42' W 073°60'1 2.4
2018-Jul-12 13:30N 40°43' W 073°58'2 4.2
2018-Jul-12 13:00N 40°45' W 073°58'2 4.2
2018-Jul-12 12:30N 40°43' W 073°58'1 2.5
2018-Jul-12 12:01N 40°42' W 073°60'2 4.6
2018-Jul-12 11:31N 40°44' W 073°58'0 0.6
2018-Jul-12 11:00N 40°44' W 073°58'2 4.6
2018-Jul-12 10:30N 40°42' W 074°00'2 3.1
2018-Jul-12 10:00N 40°42' W 073°58'0 0.0
2018-Jul-12 09:30N 40°42' W 073°58'0 0.0
2018-Jul-12 02:49N 40°42' W 073°58'1 4.5
2018-Jul-12 02:30N 40°42' W 074°00'2 4.9
2018-Jul-12 02:01N 40°44' W 073°58'1 1.3
2018-Jul-12 01:30N 40°43' W 073°58'2 4.2
2018-Jul-12 01:00N 40°42' W 074°00'0 0.7
2018-Jul-12 00:30N 40°42' W 073°60'2 4.7
2018-Jul-12 00:00N 40°44' W 073°58'0 0.9
2018-Jul-11 23:30N 40°44' W 073°58'2 4.6
2018-Jul-11 23:00N 40°42' W 074°00'1 2.0
2018-Jul-11 22:31N 40°42' W 073°59'2 4.8
2018-Jul-11 22:01N 40°45' W 073°58'2 4.3
2018-Jul-11 21:31N 40°43' W 073°58'2 3.3
2018-Jul-11 21:00N 40°42' W 074°00'2 4.2
2018-Jul-11 20:30N 40°43' W 073°58'1 2.5
2018-Jul-11 20:00N 40°44' W 073°58'3 5.5
2018-Jul-11 19:30N 40°42' W 073°60'0 0.9
2018-Jul-11 19:01N 40°42' W 074°00'2 4.2
2018-Jul-11 18:30N 40°43' W 073°58'1 2.4
2018-Jul-11 18:01N 40°44' W 073°58'3 5.3
2018-Jul-11 17:30N 40°42' W 073°60'0 0.9
2018-Jul-11 17:00N 40°42' W 074°00'2 4.3
2018-Jul-11 16:30N 40°43' W 073°58'1 2.5
2018-Jul-11 16:01N 40°45' W 073°58'3 5.6
2018-Jul-11 15:31N 40°42' W 073°60'0 0.9
2018-Jul-11 15:00N 40°42' W 074°00'2 4.3
2018-Jul-11 14:30N 40°43' W 073°58'1 2.5
2018-Jul-11 14:01N 40°45' W 073°58'3 5.5
2018-Jul-11 13:31N 40°42' W 073°60'0 0.1
2018-Jul-11 13:00N 40°42' W 073°60'3 5.4
2018-Jul-11 12:30N 40°45' W 073°58'1 2.5
2018-Jul-11 12:00N 40°43' W 073°58'2 4.1
2018-Jul-11 11:30N 40°42' W 074°00'1 2.7
2018-Jul-11 11:01N 40°43' W 073°59'2 4.3
2018-Jul-11 10:30N 40°45' W 073°58'3 0.3
2018-Jul-11 02:58N 40°42' W 073°58'  

Dump ship's entire track history